createdAt,value
2018-03-03T00:01:02.462Z,65.34
2018-03-03T00:02:07.385Z,65.45
2018-03-03T00:03:12.288Z,65.14
2018-03-03T00:04:17.002Z,65.01
2018-03-03T00:05:21.901Z,65.33
2018-03-03T00:06:27.698Z,64.92
2018-03-03T00:07:32.565Z,65.14
2018-03-03T00:08:37.586Z,65.08
2018-03-03T00:09:42.365Z,65.36
2018-03-03T00:10:47.506Z,65.07
2018-03-03T00:11:52.283Z,65.31
2018-03-03T00:12:57.119Z,65.38
2018-03-03T00:14:02.141Z,65.57
2018-03-03T00:15:07.778Z,65.46
2018-03-03T00:16:12.708Z,65.10
2018-03-03T00:17:17.854Z,64.98
2018-03-03T00:18:23.675Z,65.10
2018-03-03T00:19:28.462Z,65.12
2018-03-03T00:20:33.413Z,65.08
2018-03-03T00:21:39.130Z,65.42
2018-03-03T00:22:44.345Z,65.24
2018-03-03T00:23:50.667Z,65.28
2018-03-03T00:24:55.745Z,65.32
2018-03-03T00:26:00.698Z,65.25
2018-03-03T00:27:05.610Z,65.31
2018-03-03T00:28:10.555Z,65.45
2018-03-03T00:29:15.794Z,65.87
2018-03-03T00:30:20.767Z,65.55
2018-03-03T00:31:26.431Z,65.85
2018-03-03T00:32:31.385Z,66.13
2018-03-03T00:33:37.888Z,65.90
2018-03-03T00:34:42.929Z,65.85
2018-03-03T00:35:48.048Z,65.65
2018-03-03T00:36:52.969Z,65.56
2018-03-03T00:37:57.971Z,65.80
2018-03-03T00:39:02.968Z,65.84
2018-03-03T00:40:07.959Z,65.88
2018-03-03T00:41:13.064Z,65.99
2018-03-03T00:42:18.447Z,66.11
2018-03-03T00:43:23.297Z,65.89
2018-03-03T00:44:28.146Z,65.91
2018-03-03T00:45:33.220Z,65.66
2018-03-03T00:46:38.939Z,65.71
2018-03-03T00:47:44.226Z,65.99
2018-03-03T00:48:49.180Z,66.07
2018-03-03T00:49:54.019Z,66.00
2018-03-03T00:50:58.971Z,66.18
2018-03-03T00:52:04.140Z,65.98
2018-03-03T00:53:09.387Z,65.60
2018-03-03T00:54:15.306Z,66.09
2018-03-03T00:55:20.687Z,66.09
2018-03-03T00:56:25.644Z,65.92
2018-03-03T00:57:30.695Z,65.98
2018-03-03T00:58:36.625Z,65.70
2018-03-03T00:59:41.922Z,66.04
2018-03-03T01:00:47.555Z,65.86
2018-03-03T01:01:53.016Z,66.17
2018-03-03T01:02:58.271Z,65.81
2018-03-03T01:04:03.241Z,65.83
2018-03-03T01:05:08.477Z,65.99
2018-03-03T01:06:13.725Z,65.98
2018-03-03T01:07:18.756Z,66.00
2018-03-03T01:08:24.055Z,65.95
2018-03-03T01:09:29.120Z,65.98
2018-03-03T01:10:34.134Z,66.25
2018-03-03T01:11:40.364Z,66.01
2018-03-03T01:12:45.565Z,66.00
2018-03-03T01:13:50.526Z,65.81
2018-03-03T01:14:56.166Z,65.81
2018-03-03T01:16:02.519Z,65.93
2018-03-03T01:17:07.770Z,65.73
2018-03-03T01:18:13.053Z,65.48
2018-03-03T01:19:18.106Z,65.52
2018-03-03T01:20:23.249Z,65.71
2018-03-03T01:21:28.467Z,65.89
2018-03-03T01:22:33.664Z,65.71
2018-03-03T01:23:38.718Z,65.81
2018-03-03T01:24:43.540Z,65.69
2018-03-03T01:25:48.782Z,65.90
2018-03-03T01:26:53.838Z,65.86
2018-03-03T01:27:59.471Z,66.08
2018-03-03T01:29:04.795Z,65.97
2018-03-03T01:30:12.660Z,65.96
2018-03-03T01:31:17.973Z,65.96
2018-03-03T01:32:23.175Z,65.87
2018-03-03T01:33:29.034Z,65.89
2018-03-03T01:34:34.557Z,66.04
2018-03-03T01:35:39.555Z,66.14
2018-03-03T01:36:44.723Z,65.76
2018-03-03T01:37:49.979Z,65.71
2018-03-03T01:38:55.230Z,65.74
2018-03-03T01:40:00.442Z,65.86
2018-03-03T01:41:06.112Z,65.59
2018-03-03T01:42:11.383Z,65.61
2018-03-03T01:43:16.659Z,65.75
2018-03-03T01:44:22.062Z,65.67
2018-03-03T01:45:28.806Z,65.73
2018-03-03T01:46:34.653Z,65.61
2018-03-03T01:47:40.227Z,65.37
2018-03-03T01:48:45.567Z,65.53
2018-03-03T01:49:50.961Z,65.47
2018-03-03T01:50:56.278Z,65.39
2018-03-03T01:52:01.325Z,65.72
2018-03-03T01:53:06.636Z,65.67
2018-03-03T01:54:11.999Z,65.80
2018-03-03T01:55:17.312Z,65.67
2018-03-03T01:56:22.537Z,65.59
2018-03-03T01:57:27.727Z,65.64
2018-03-03T01:58:32.943Z,65.54
2018-03-03T01:59:37.843Z,65.60
2018-03-03T02:00:44.278Z,65.52
2018-03-03T02:01:49.482Z,65.53
2018-03-03T02:02:54.828Z,65.57
2018-03-03T02:04:00.391Z,65.70
2018-03-03T02:05:05.761Z,65.83
2018-03-03T02:06:11.266Z,65.61
2018-03-03T02:07:16.531Z,65.84
2018-03-03T02:08:21.734Z,65.86
2018-03-03T02:09:27.754Z,65.83
2018-03-03T02:10:33.158Z,65.87
2018-03-03T02:11:38.597Z,66.15
2018-03-03T02:12:44.550Z,66.09
2018-03-03T02:13:49.750Z,66.10
2018-03-03T02:14:55.187Z,65.72
2018-03-03T02:16:01.048Z,65.84
2018-03-03T02:17:06.508Z,65.70
2018-03-03T02:18:11.647Z,65.95
2018-03-03T02:19:17.418Z,65.50
2018-03-03T02:20:22.709Z,65.63
2018-03-03T02:21:28.075Z,65.67
2018-03-03T02:22:33.897Z,65.88
2018-03-03T02:23:39.211Z,65.84
2018-03-03T02:24:44.970Z,65.58
2018-03-03T02:25:50.359Z,65.99
2018-03-03T02:26:55.568Z,66.17
2018-03-03T02:28:00.826Z,66.28
2018-03-03T02:29:05.672Z,66.15
2018-03-03T02:30:15.288Z,66.20
2018-03-03T02:31:20.519Z,66.26
2018-03-03T02:32:25.659Z,66.44
2018-03-03T02:33:30.629Z,66.40
2018-03-03T02:34:35.860Z,66.01
2018-03-03T02:35:41.002Z,65.99
2018-03-03T02:36:46.882Z,65.91
2018-03-03T02:37:52.177Z,66.01
2018-03-03T02:38:57.641Z,65.81
2018-03-03T02:40:02.895Z,65.54
2018-03-03T02:41:08.074Z,65.60
2018-03-03T02:42:13.049Z,65.71
2018-03-03T02:43:18.976Z,65.78
2018-03-03T02:44:23.618Z,65.64
2018-03-03T02:45:28.961Z,65.86
2018-03-03T02:46:34.273Z,65.82
2018-03-03T02:47:39.480Z,66.04
2018-03-03T02:48:44.751Z,66.09
2018-03-03T02:49:50.240Z,65.91
2018-03-03T02:50:55.302Z,65.86
2018-03-03T02:52:00.699Z,66.30
2018-03-03T02:53:05.727Z,66.13
2018-03-03T02:54:10.989Z,66.64
2018-03-03T02:55:16.153Z,66.36
2018-03-03T02:56:21.109Z,66.26
2018-03-03T02:57:27.289Z,66.27
2018-03-03T02:58:32.541Z,66.22
2018-03-03T02:59:37.841Z,66.02
2018-03-03T03:00:42.935Z,65.99
2018-03-03T03:01:50.375Z,66.12
2018-03-03T03:02:55.739Z,66.70
2018-03-03T03:04:00.836Z,66.60
2018-03-03T03:05:05.818Z,66.57
2018-03-03T03:06:10.871Z,66.46
2018-03-03T03:07:15.763Z,66.56
2018-03-03T03:08:20.935Z,66.57
2018-03-03T03:09:25.642Z,66.29
2018-03-03T03:10:31.423Z,66.19
2018-03-03T03:11:36.595Z,66.31
2018-03-03T03:12:41.201Z,66.19
2018-03-03T03:13:47.173Z,66.31
2018-03-03T03:14:52.845Z,66.26
2018-03-03T03:15:58.116Z,66.12
2018-03-03T03:17:03.208Z,66.33
2018-03-03T03:18:08.198Z,66.63
2018-03-03T03:19:13.239Z,66.42
2018-03-03T03:20:18.681Z,66.62
2018-03-03T03:21:24.279Z,66.67
2018-03-03T03:22:30.981Z,66.59
2018-03-03T03:23:37.753Z,66.59
2018-03-03T03:24:42.902Z,66.73
2018-03-03T03:25:48.742Z,66.70
2018-03-03T03:26:54.052Z,66.79
2018-03-03T03:27:59.713Z,66.70
2018-03-03T03:29:04.695Z,66.88
2018-03-03T03:30:10.568Z,67.13
2018-03-03T03:31:17.505Z,66.97
2018-03-03T03:32:23.150Z,67.00
2018-03-03T03:33:28.358Z,66.87
2018-03-03T03:34:33.682Z,67.12
2018-03-03T03:35:38.843Z,67.03
2018-03-03T03:36:43.726Z,67.17
2018-03-03T03:37:49.130Z,66.90
2018-03-03T03:38:54.220Z,67.12
2018-03-03T03:39:59.288Z,67.21
2018-03-03T03:41:04.460Z,67.25
2018-03-03T03:42:09.064Z,67.41
2018-03-03T03:43:14.200Z,67.69
2018-03-03T03:44:18.977Z,67.83
2018-03-03T03:45:24.079Z,67.70
2018-03-03T03:46:29.514Z,67.57
2018-03-03T03:47:34.413Z,67.39
2018-03-03T03:48:39.162Z,67.27
2018-03-03T03:49:44.039Z,66.98
2018-03-03T03:50:48.834Z,66.89
2018-03-03T03:51:54.056Z,66.96
2018-03-03T03:53:00.587Z,67.27
2018-03-03T03:54:05.450Z,67.30
2018-03-03T03:55:09.805Z,67.34
2018-03-03T03:56:15.019Z,67.13
2018-03-03T03:57:19.748Z,67.24
2018-03-03T03:58:25.079Z,67.01
2018-03-03T03:59:30.917Z,67.09
2018-03-03T04:00:35.979Z,67.39
2018-03-03T04:01:40.881Z,67.37
2018-03-03T04:02:45.662Z,67.12
2018-03-03T04:03:51.399Z,67.05
2018-03-03T04:04:56.415Z,67.08
2018-03-03T04:06:01.061Z,67.11
2018-03-03T04:07:05.775Z,67.07
2018-03-03T04:08:10.604Z,67.23
2018-03-03T04:09:15.639Z,67.49
2018-03-03T04:10:20.506Z,67.39
2018-03-03T04:11:25.357Z,67.53
2018-03-03T04:15:23.503Z,67.39
2018-03-03T04:16:29.809Z,67.39
2018-03-03T04:17:35.694Z,67.27
2018-03-03T04:18:42.021Z,67.21
2018-03-03T04:19:48.378Z,67.56
2018-03-03T04:20:56.431Z,67.40
2018-03-03T04:22:01.821Z,67.59
2018-03-03T04:23:08.284Z,67.64
2018-03-03T04:24:13.482Z,67.39
2018-03-03T04:25:19.553Z,67.45
2018-03-03T04:26:25.124Z,67.49
2018-03-03T04:27:31.304Z,67.33
2018-03-03T04:28:37.088Z,67.19
2018-03-03T04:29:41.545Z,67.23
2018-03-03T04:30:48.587Z,67.43
2018-03-03T04:31:53.243Z,67.75
2018-03-03T04:32:58.922Z,67.86
2018-03-03T04:34:04.020Z,67.68
2018-03-03T04:35:10.146Z,67.51
2018-03-03T04:36:16.260Z,67.65
2018-03-03T04:37:22.246Z,67.39
2018-03-03T04:38:29.499Z,67.81
2018-03-03T04:39:35.530Z,67.71
2018-03-03T04:40:41.443Z,67.88
2018-03-03T04:41:59.031Z,67.89
2018-03-03T04:43:04.983Z,68.10
2018-03-03T04:44:11.121Z,67.88
2018-03-03T04:45:18.802Z,67.81
2018-03-03T04:46:24.040Z,67.47
2018-03-03T04:47:36.055Z,67.47
2018-03-03T04:48:41.964Z,67.48
2018-03-03T04:49:49.187Z,67.60
2018-03-03T04:50:56.986Z,67.56
2018-03-03T04:52:02.708Z,67.47
2018-03-03T04:53:08.481Z,67.35
2018-03-03T04:54:14.265Z,67.56
2018-03-03T04:55:20.287Z,67.54
2018-03-03T04:56:25.742Z,67.52
2018-03-03T04:57:31.192Z,67.71
2018-03-03T04:58:37.172Z,67.73
2018-03-03T04:59:43.470Z,67.54
2018-03-03T05:00:50.448Z,67.97
2018-03-03T05:01:56.971Z,67.86
2018-03-03T05:03:03.080Z,68.00
2018-03-03T05:04:08.776Z,68.32
2018-03-03T05:05:14.990Z,68.33
2018-03-03T05:06:21.260Z,68.23
2018-03-03T05:07:27.739Z,68.03
2018-03-03T05:08:33.301Z,68.07
2018-03-03T05:09:38.936Z,68.13
2018-03-03T05:10:44.269Z,68.08
2018-03-03T05:11:50.012Z,68.11
2018-03-03T05:12:56.423Z,67.83
2018-03-03T05:14:02.653Z,68.09
2018-03-03T05:15:09.621Z,68.15
2018-03-03T05:16:16.572Z,68.24
2018-03-03T05:17:23.094Z,68.19
2018-03-03T05:18:29.609Z,68.35
2018-03-03T05:19:35.499Z,68.21
2018-03-03T05:20:42.171Z,68.50
2018-03-03T05:21:49.207Z,68.32
2018-03-03T05:22:56.111Z,68.29
2018-03-03T05:24:02.703Z,68.39
2018-03-03T05:25:08.568Z,68.51
2018-03-03T05:26:15.581Z,68.47
2018-03-03T05:27:22.232Z,68.29
2018-03-03T05:28:43.608Z,68.39
2018-03-03T05:29:50.115Z,68.26
2018-03-03T05:30:59.162Z,68.25
2018-03-03T05:32:05.949Z,68.26
2018-03-03T05:33:15.374Z,68.17
2018-03-03T05:34:21.937Z,68.05
2018-03-03T05:35:27.563Z,68.20
2018-03-03T05:36:35.377Z,68.20
2018-03-03T05:37:42.222Z,68.30
2018-03-03T05:38:48.891Z,68.25
2018-03-03T05:39:55.835Z,68.33
2018-03-03T05:41:03.814Z,68.27
2018-03-03T05:42:09.683Z,68.10
2018-03-03T05:43:15.356Z,68.10
2018-03-03T05:44:22.811Z,68.16
2018-03-03T05:45:29.764Z,68.43
2018-03-03T05:46:36.604Z,68.49
2018-03-03T05:47:42.730Z,68.32
2018-03-03T05:48:49.215Z,68.31
2018-03-03T05:49:55.997Z,68.31
2018-03-03T05:51:01.554Z,68.24
2018-03-03T05:52:07.335Z,68.13
2018-03-03T05:53:13.819Z,67.97
2018-03-03T05:54:19.765Z,68.17
2018-03-03T05:55:25.969Z,68.25
2018-03-03T05:56:31.268Z,68.16
2018-03-03T05:57:38.329Z,68.18
2018-03-03T05:58:44.583Z,68.25
2018-03-03T05:59:50.973Z,68.36
2018-03-03T06:00:59.067Z,68.47
2018-03-03T06:02:05.032Z,68.41
2018-03-03T06:03:11.772Z,68.46
2018-03-03T06:04:17.361Z,68.67
2018-03-03T06:05:25.642Z,68.75
2018-03-03T06:06:33.115Z,68.57
2018-03-03T06:07:38.279Z,68.57
2018-03-03T06:08:44.160Z,68.62
2018-03-03T06:09:51.235Z,68.60
2018-03-03T06:10:57.392Z,68.54
2018-03-03T06:12:03.236Z,68.66
2018-03-03T06:13:09.435Z,68.54
2018-03-03T06:14:14.841Z,68.71
2018-03-03T06:15:21.597Z,68.75
2018-03-03T06:16:27.379Z,68.62
2018-03-03T06:17:40.368Z,68.65
2018-03-03T06:18:45.853Z,68.77
2018-03-03T06:19:51.815Z,68.92
2018-03-03T06:20:58.661Z,68.91
2018-03-03T06:22:04.904Z,68.68
2018-03-03T06:23:12.161Z,68.78
2018-03-03T06:24:17.901Z,68.55
2018-03-03T06:25:23.689Z,68.34
2018-03-03T06:26:29.958Z,68.48
2018-03-03T06:27:46.766Z,68.48
2018-03-03T06:28:53.513Z,68.85
2018-03-03T06:30:00.108Z,68.66
2018-03-03T06:31:06.772Z,68.80
2018-03-03T06:32:13.337Z,68.48
2018-03-03T06:33:20.037Z,68.45
2018-03-03T06:34:28.090Z,68.42
2018-03-03T06:35:35.745Z,68.24
2018-03-03T06:36:41.964Z,68.23
2018-03-03T06:37:48.966Z,68.07
2018-03-03T06:39:10.205Z,67.98
2018-03-03T06:40:21.518Z,67.94
2018-03-03T06:41:34.806Z,67.66
2018-03-03T06:42:41.604Z,67.58
2018-03-03T06:43:49.505Z,67.62
2018-03-03T06:45:00.740Z,67.42
2018-03-03T06:46:07.447Z,67.31
2018-03-03T06:47:15.869Z,67.26
2018-03-03T06:48:24.982Z,67.57
2018-03-03T06:49:30.915Z,67.54
2018-03-03T06:50:37.274Z,67.62
2018-03-03T06:51:44.874Z,67.45
2018-03-03T06:52:52.106Z,67.65
2018-03-03T06:53:58.429Z,67.22
2018-03-03T06:55:05.217Z,67.09
2018-03-03T06:57:13.377Z,67.17
2018-03-03T06:58:19.119Z,67.01
2018-03-03T06:59:25.076Z,66.89
2018-03-03T07:00:30.751Z,66.95
2018-03-03T07:01:36.050Z,66.60
2018-03-03T07:02:41.807Z,66.56
2018-03-03T07:03:47.108Z,66.37
2018-03-03T07:04:52.674Z,66.37
2018-03-03T07:06:08.209Z,66.12
2018-03-03T07:07:13.387Z,65.92
2018-03-03T07:08:18.863Z,65.94
2018-03-03T07:09:24.864Z,65.76
2018-03-03T07:10:30.389Z,65.61
2018-03-03T07:11:41.382Z,65.32
2018-03-03T07:12:47.285Z,65.34
2018-03-03T07:13:52.438Z,65.19
2018-03-03T07:14:58.146Z,65.05
2018-03-03T07:16:04.489Z,65.07
2018-03-03T07:17:10.857Z,64.65
2018-03-03T07:18:15.917Z,64.24
2018-03-03T07:19:26.803Z,64.13
2018-03-03T07:20:32.109Z,63.62
2018-03-03T07:21:38.189Z,63.15
2018-03-03T07:22:43.442Z,63.09
2018-03-03T07:23:48.579Z,62.83
2018-03-03T07:24:53.467Z,62.97
2018-03-03T07:25:58.882Z,62.65
2018-03-03T07:27:03.827Z,62.18
2018-03-03T07:28:09.525Z,61.91
2018-03-03T07:29:16.182Z,61.98
2018-03-03T07:30:23.141Z,61.93
2018-03-03T07:31:28.431Z,62.04
2018-03-03T07:32:33.926Z,61.88
2018-03-03T07:33:39.546Z,61.50
2018-03-03T07:34:47.819Z,60.88
2018-03-03T07:35:52.954Z,60.32
2018-03-03T07:36:58.425Z,60.28
2018-03-03T07:38:03.517Z,60.67
2018-03-03T07:39:08.416Z,60.83
2018-03-03T07:40:13.527Z,60.47
2018-03-03T07:41:19.226Z,60.22
2018-03-03T07:42:24.085Z,60.63
2018-03-03T07:43:29.660Z,60.21
2018-03-03T07:44:34.560Z,60.08
2018-03-03T07:45:40.809Z,59.75
2018-03-03T07:46:46.389Z,59.75
2018-03-03T07:47:51.371Z,59.51
2018-03-03T07:48:56.762Z,59.64
2018-03-03T07:50:02.288Z,59.48
2018-03-03T07:51:07.608Z,59.92
2018-03-03T07:52:12.435Z,59.42
2018-03-03T07:53:18.237Z,58.83
2018-03-03T07:54:23.229Z,58.64
2018-03-03T07:55:28.312Z,58.97
2018-03-03T07:56:42.425Z,58.76
2018-03-03T07:57:47.624Z,58.40
2018-03-03T07:58:52.880Z,58.04
2018-03-03T07:59:57.584Z,58.41
2018-03-03T08:01:03.850Z,58.38
2018-03-03T08:02:08.563Z,58.42
2018-03-03T08:03:13.619Z,58.85
2018-03-03T08:04:18.851Z,58.17
2018-03-03T08:05:23.683Z,57.59
2018-03-03T08:06:28.977Z,57.25
2018-03-03T08:07:34.315Z,56.99
2018-03-03T08:08:39.332Z,56.84
2018-03-03T08:09:44.155Z,56.56
2018-03-03T08:10:49.243Z,56.59
2018-03-03T08:11:54.063Z,56.83
2018-03-03T08:12:59.034Z,56.58
2018-03-03T08:14:03.858Z,56.82
2018-03-03T08:15:09.043Z,56.82
2018-03-03T08:16:14.632Z,56.91
2018-03-03T08:17:19.311Z,57.04
2018-03-03T08:18:24.192Z,56.07
2018-03-03T08:19:29.190Z,55.98
2018-03-03T08:20:34.015Z,56.04
2018-03-03T08:21:39.171Z,55.80
2018-03-03T08:22:45.204Z,56.34
2018-03-03T08:23:50.039Z,56.27
2018-03-03T08:24:54.844Z,55.86
2018-03-03T08:25:59.854Z,55.71
2018-03-03T08:27:05.014Z,55.65
2018-03-03T08:28:09.979Z,55.68
2018-03-03T08:29:14.718Z,55.20
2018-03-03T08:30:20.127Z,55.10
2018-03-03T08:31:25.041Z,55.06
2018-03-03T08:32:30.235Z,54.81
2018-03-03T08:33:35.371Z,54.27
2018-03-03T08:34:41.064Z,54.08
2018-03-03T08:35:45.869Z,54.10
2018-03-03T08:36:51.637Z,53.85
2018-03-03T08:37:56.470Z,53.94
2018-03-03T08:39:02.207Z,54.08
2018-03-03T08:40:07.074Z,54.16
2018-03-03T08:41:11.973Z,53.92
2018-03-03T08:42:16.710Z,52.98
2018-03-03T08:43:21.496Z,52.67
2018-03-03T08:44:26.367Z,52.56
2018-03-03T08:45:32.448Z,52.15
2018-03-03T08:46:37.348Z,51.86
2018-03-03T08:47:42.893Z,51.64
2018-03-03T08:48:47.761Z,51.88
2018-03-03T08:49:52.464Z,51.87
2018-03-03T08:50:57.109Z,51.73
2018-03-03T08:52:01.917Z,51.08
2018-03-03T08:53:06.622Z,51.19
2018-03-03T08:54:11.324Z,50.89
2018-03-03T08:55:16.149Z,50.91
2018-03-03T08:56:20.862Z,51.13
2018-03-03T08:57:25.685Z,50.81
2018-03-03T08:58:30.658Z,50.70
2018-03-03T08:59:35.284Z,50.58
2018-03-03T09:00:40.403Z,50.73
2018-03-03T09:01:45.870Z,50.55
2018-03-03T09:02:50.658Z,50.26
2018-03-03T09:03:55.463Z,50.29
2018-03-03T09:05:00.210Z,50.76
2018-03-03T09:06:05.731Z,51.06
2018-03-03T09:07:10.560Z,51.10
2018-03-03T09:08:15.399Z,50.52
2018-03-03T09:09:20.441Z,50.68
2018-03-03T09:10:25.188Z,50.07
2018-03-03T09:11:29.934Z,49.59
2018-03-03T09:12:36.136Z,48.44
2018-03-03T09:13:41.217Z,48.53
2018-03-03T09:14:46.642Z,48.08
2018-03-03T09:15:52.351Z,47.57
2018-03-03T09:16:57.040Z,47.81
2018-03-03T09:18:01.924Z,48.15
2018-03-03T09:19:06.668Z,47.55
2018-03-03T09:20:11.278Z,47.58
2018-03-03T09:21:16.091Z,47.54
2018-03-03T09:22:21.140Z,46.79
2018-03-03T09:23:25.970Z,46.69
2018-03-03T09:24:30.867Z,46.36
2018-03-03T09:25:36.176Z,45.86
2018-03-03T09:26:41.133Z,45.74
2018-03-03T09:27:47.576Z,45.54
2018-03-03T09:28:52.364Z,45.39
2018-03-03T09:29:57.159Z,45.20
2018-03-03T09:31:01.809Z,45.21
2018-03-03T09:32:07.020Z,44.93
2018-03-03T09:33:11.677Z,45.39
2018-03-03T09:34:16.893Z,45.35
2018-03-03T09:35:21.635Z,45.64
2018-03-03T09:36:26.696Z,45.67
2018-03-03T09:37:31.657Z,45.67
2018-03-03T09:38:36.475Z,45.98
2018-03-03T09:39:41.379Z,46.36
2018-03-03T09:40:47.472Z,45.56
2018-03-03T09:41:52.373Z,45.05
2018-03-03T09:42:57.831Z,45.46
2018-03-03T09:44:03.135Z,45.71
2018-03-03T09:45:07.959Z,46.23
2018-03-03T09:46:12.982Z,45.85
2018-03-03T09:47:18.104Z,45.59
2018-03-03T09:48:23.023Z,45.31
2018-03-03T09:49:28.019Z,45.28
2018-03-03T09:50:32.756Z,45.43
2018-03-03T09:51:37.471Z,45.15
2018-03-03T09:52:42.302Z,44.21
2018-03-03T09:53:48.353Z,44.06
2018-03-03T09:54:53.122Z,43.52
2018-03-03T09:55:57.920Z,43.99
2018-03-03T09:57:02.794Z,43.94
2018-03-03T09:58:07.801Z,43.55
2018-03-03T09:59:12.719Z,43.73
2018-03-03T10:00:17.691Z,43.44
2018-03-03T10:01:22.687Z,43.05
2018-03-03T10:02:27.751Z,42.83
2018-03-03T10:03:32.471Z,43.38
2018-03-03T10:04:37.518Z,43.79
2018-03-03T10:05:42.571Z,43.66
2018-03-03T10:06:47.300Z,43.49
2018-03-03T10:07:52.125Z,43.31
2018-03-03T10:08:56.804Z,43.43
2018-03-03T10:10:01.709Z,42.84
2018-03-03T10:11:06.739Z,42.73
2018-03-03T10:12:11.508Z,42.42
2018-03-03T10:13:16.134Z,42.61
2018-03-03T10:14:21.046Z,41.72
2018-03-03T10:15:26.379Z,41.62
2018-03-03T10:16:31.051Z,41.59
2018-03-03T10:17:35.875Z,41.44
2018-03-03T10:18:40.778Z,41.45
2018-03-03T10:19:45.424Z,41.66
2018-03-03T10:20:50.381Z,41.13
2018-03-03T10:21:55.300Z,41.19
2018-03-03T10:23:00.284Z,41.51
2018-03-03T10:24:05.022Z,41.73
2018-03-03T10:25:09.836Z,41.70
2018-03-03T10:26:15.111Z,41.53
2018-03-03T10:27:19.749Z,41.35
2018-03-03T10:28:24.401Z,41.17
2018-03-03T10:29:29.246Z,41.07
2018-03-03T10:30:34.034Z,40.33
2018-03-03T10:31:39.801Z,40.53
2018-03-03T10:32:45.078Z,40.29
2018-03-03T10:33:49.859Z,40.13
2018-03-03T10:34:54.861Z,40.03
2018-03-03T10:35:59.498Z,40.20
2018-03-03T10:37:04.242Z,40.19
2018-03-03T10:38:09.804Z,40.61
2018-03-03T10:39:14.488Z,40.57
2018-03-03T10:40:19.382Z,40.69
2018-03-03T10:41:24.518Z,40.48
2018-03-03T10:42:29.468Z,41.01
2018-03-03T10:43:34.233Z,40.92
2018-03-03T10:44:39.020Z,40.95
2018-03-03T10:45:44.918Z,40.76
2018-03-03T10:46:49.693Z,40.84
2018-03-03T10:47:54.917Z,39.88
2018-03-03T10:48:59.734Z,39.89
2018-03-03T10:50:04.557Z,39.92
2018-03-03T10:51:09.344Z,39.36
2018-03-03T10:52:14.222Z,39.41
2018-03-03T10:53:18.954Z,39.52
2018-03-03T10:54:23.651Z,39.13
2018-03-03T10:55:28.727Z,39.32
2018-03-03T10:56:33.604Z,38.93
2018-03-03T10:57:38.547Z,39.19
2018-03-03T10:58:43.446Z,39.61
2018-03-03T10:59:48.706Z,39.81
2018-03-03T11:00:53.434Z,39.65
2018-03-03T11:01:58.217Z,39.83
2018-03-03T11:03:02.893Z,38.60
2018-03-03T11:04:07.744Z,37.74
2018-03-03T11:05:14.360Z,38.06
2018-03-03T11:06:19.418Z,37.81
2018-03-03T11:07:24.126Z,36.96
2018-03-03T11:08:29.151Z,37.58
2018-03-03T11:09:33.903Z,37.95
2018-03-03T11:10:38.780Z,37.70
2018-03-03T11:11:44.733Z,37.63
2018-03-03T11:12:50.667Z,37.46
2018-03-03T11:13:55.426Z,37.02
2018-03-03T11:15:00.203Z,37.40
2018-03-03T11:16:04.969Z,37.20
2018-03-03T11:17:09.703Z,36.29
2018-03-03T11:18:14.323Z,36.47
2018-03-03T11:19:19.068Z,36.55
2018-03-03T11:20:24.015Z,36.61
2018-03-03T11:21:28.863Z,36.85
2018-03-03T11:22:33.766Z,36.99
2018-03-03T11:23:38.500Z,36.38
2018-03-03T11:24:43.444Z,36.52
2018-03-03T11:25:50.134Z,36.17
2018-03-03T11:26:54.946Z,36.11
2018-03-03T11:27:59.750Z,35.30
2018-03-03T11:29:04.610Z,35.54
2018-03-03T11:30:09.829Z,34.98
2018-03-03T11:31:14.762Z,35.57
2018-03-03T11:32:19.848Z,35.38
2018-03-03T11:33:24.694Z,35.19
2018-03-03T11:34:29.644Z,35.41
2018-03-03T11:35:34.520Z,35.71
2018-03-03T11:36:40.267Z,35.72
2018-03-03T11:37:45.048Z,35.73
2018-03-03T11:38:51.084Z,36.22
2018-03-03T11:39:55.868Z,35.97
2018-03-03T11:41:00.602Z,35.81
2018-03-03T11:42:05.258Z,35.31
2018-03-03T11:43:11.036Z,34.99
2018-03-03T11:44:15.819Z,34.70
2018-03-03T11:45:20.982Z,35.30
2018-03-03T11:46:25.854Z,34.72
2018-03-03T11:47:30.638Z,34.53
2018-03-03T11:48:35.620Z,34.58
2018-03-03T11:49:40.409Z,34.66
2018-03-03T11:50:45.447Z,34.54
2018-03-03T11:51:50.093Z,35.08
2018-03-03T11:52:54.884Z,35.14
2018-03-03T11:53:59.701Z,35.14
2018-03-03T11:55:04.561Z,35.08
2018-03-03T11:56:09.302Z,35.42
2018-03-03T11:57:14.259Z,35.56
2018-03-03T11:58:19.632Z,35.48
2018-03-03T11:59:24.358Z,35.14
2018-03-03T12:00:29.820Z,34.92
2018-03-03T12:01:34.530Z,33.57
2018-03-03T12:02:39.318Z,33.38
2018-03-03T12:03:44.341Z,32.63
2018-03-03T12:04:50.042Z,32.52
2018-03-03T12:05:54.797Z,31.58
2018-03-03T12:06:59.550Z,31.36
2018-03-03T12:08:04.292Z,30.96
2018-03-03T12:09:09.081Z,32.02
2018-03-03T12:10:14.721Z,31.52
2018-03-03T12:11:20.488Z,32.36
2018-03-03T12:12:25.237Z,33.57
2018-03-03T12:13:30.118Z,34.21
2018-03-03T12:14:35.047Z,33.59
2018-03-03T12:15:40.599Z,32.73
2018-03-03T12:16:45.352Z,32.36
2018-03-03T12:17:50.616Z,32.09
2018-03-03T12:18:55.427Z,33.21
2018-03-03T12:20:00.222Z,32.65
2018-03-03T12:21:05.332Z,33.12
2018-03-03T12:22:10.091Z,32.94
2018-03-03T12:23:15.825Z,33.28
2018-03-03T12:24:20.580Z,33.54
2018-03-03T12:25:25.505Z,33.80
2018-03-03T12:26:30.614Z,33.00
2018-03-03T12:27:35.708Z,32.56
2018-03-03T12:28:40.748Z,32.65
2018-03-03T12:29:45.382Z,32.41
2018-03-03T12:30:50.246Z,32.52
2018-03-03T12:31:55.020Z,32.63
2018-03-03T12:32:59.827Z,32.50
2018-03-03T12:34:04.668Z,32.54
2018-03-03T12:35:09.341Z,33.18
2018-03-03T12:36:14.131Z,33.05
2018-03-03T12:37:19.022Z,33.00
2018-03-03T12:38:23.744Z,33.16
2018-03-03T12:39:29.023Z,32.46
2018-03-03T12:40:33.906Z,31.69
2018-03-03T12:41:38.721Z,31.09
2018-03-03T12:42:44.029Z,31.26
2018-03-03T12:43:48.902Z,32.54
2018-03-03T12:44:53.613Z,33.28
2018-03-03T12:46:00.250Z,32.89
2018-03-03T12:47:04.982Z,33.24
2018-03-03T12:48:09.735Z,32.72
2018-03-03T12:49:14.362Z,32.16
2018-03-03T12:50:19.035Z,32.67
2018-03-03T12:51:23.808Z,32.05
2018-03-03T12:52:29.095Z,31.26
2018-03-03T12:53:33.980Z,31.30
2018-03-03T12:54:38.691Z,30.75
2018-03-03T12:55:43.332Z,30.62
2018-03-03T12:56:48.201Z,31.51
2018-03-03T12:57:52.810Z,32.65
2018-03-03T12:58:57.970Z,32.56
2018-03-03T13:00:05.000Z,32.85
2018-03-03T13:01:09.991Z,32.36
2018-03-03T13:02:15.302Z,31.47
2018-03-03T13:03:21.137Z,31.75
2018-03-03T13:04:25.839Z,32.18
2018-03-03T13:05:30.842Z,32.73
2018-03-03T13:06:35.588Z,33.08
2018-03-03T13:07:40.285Z,33.40
2018-03-03T13:08:44.994Z,32.62
2018-03-03T13:09:49.781Z,32.10
2018-03-03T13:10:54.671Z,31.41
2018-03-03T13:11:59.387Z,31.41
2018-03-03T13:13:04.159Z,31.63
2018-03-03T13:14:08.948Z,32.57
2018-03-03T13:15:16.079Z,32.87
2018-03-03T13:16:20.850Z,33.35
2018-03-03T13:17:25.654Z,32.99
2018-03-03T13:18:30.606Z,33.17
2018-03-03T13:19:35.371Z,32.89
2018-03-03T13:20:40.063Z,33.04
2018-03-03T13:21:45.139Z,33.23
2018-03-03T13:22:50.492Z,33.06
2018-03-03T13:23:55.341Z,33.25
2018-03-03T13:25:00.147Z,33.17
2018-03-03T13:26:04.920Z,32.25
2018-03-03T13:27:10.624Z,33.05
2018-03-03T13:28:16.790Z,33.51
2018-03-03T13:29:22.491Z,33.46
2018-03-03T13:32:04.808Z,33.42
2018-03-03T13:33:11.601Z,31.83
2018-03-03T13:34:19.830Z,30.73
2018-03-03T13:35:27.150Z,30.51
2018-03-03T13:36:32.127Z,30.29
2018-03-03T13:37:39.911Z,29.79
2018-03-03T13:38:48.313Z,30.66
2018-03-03T13:39:53.767Z,30.28
2018-03-03T13:41:00.049Z,29.88
2018-03-03T13:42:04.908Z,30.63
2018-03-03T13:43:09.844Z,30.94
2018-03-03T13:44:14.496Z,31.32
2018-03-03T13:45:20.619Z,31.25
2018-03-03T13:46:26.482Z,31.42
2018-03-03T13:47:35.459Z,30.69
2018-03-03T13:48:40.253Z,30.28
2018-03-03T13:49:45.072Z,31.23
2018-03-03T13:50:50.737Z,31.98
2018-03-03T13:51:55.761Z,32.00
2018-03-03T13:53:00.525Z,31.31
2018-03-03T13:54:05.880Z,30.47
2018-03-03T13:55:10.647Z,29.51
2018-03-03T13:56:15.385Z,29.87
2018-03-03T13:57:22.106Z,31.99
2018-03-03T13:58:27.300Z,32.43
2018-03-03T13:59:32.158Z,31.34
2018-03-03T14:00:38.531Z,31.42
2018-03-03T14:01:43.269Z,29.67
2018-03-03T14:04:02.693Z,29.26
2018-03-03T14:05:07.558Z,29.06
2018-03-03T14:06:12.403Z,31.22
2018-03-03T14:07:17.983Z,31.88
2018-03-03T14:08:23.122Z,31.49
2018-03-03T14:09:27.837Z,31.61
2018-03-03T14:10:32.827Z,31.55
2018-03-03T14:11:37.769Z,31.34